EDDLEDDW

Guest
Details From EDDL - Duesseldorf
To EDDW - Bremen
Flight Number -
Tags Generated
Created
Modified
Stats Distance 130 nm / 240 km
Max Altitude 0 ft / 0 m
Waypoints 2
Social Downloads 1
Likes 0
Share VATSIM

Download

Looking for another format? Having issues loading an existing format? Contact us
Advertisement - Login to hide

Notes

Generated

Route

EDDL EDDW

ID Type Via Altitude Latitude Longitude Leg Dist Tot Dist Heading (true) Name
O EDDL APT - 0 ft / 0 m 51.28373˚ 6.74873˚ - 0 nm - -
O EDDW APT - 0 ft / 0 m 53.04257˚ 8.78424˚ 129 nm 129 nm 35° / 36° -

Altitude Profile

Advertisement - Login to hide

EDDL

Details ICAO EDDL (DUS)
Name Duesseldorf
Region Germany - Civil
Timezone Europe/Berlin (UTC+2.0)
Stats Elevation 146 ft / 45 m (AMSL)
Location 51.289419° 6.766637°
Runways 2
Magnetic Variation 1.866° E

METAR

EDDL 232120Z 05007KT CAVOK 18/09 Q1020 NOSIG

Decode

TAF

TAF EDDL 231700Z 2318/2424 03008KT 9999 FEW040 BECMG 2409/2411 09009KT TEMPO 2413/2420 TSRA BKN030CB

Decode

Departure Runways

ID Width Length Bearing (true) Bearing (mag) Surface Threshold Offset Overrun Length
05L 148 ft / 45 m 8,895 ft / 2,711 m 52.72° 50.85° Concrete 994 ft / 303 m 906 ft / 276 m
05R 148 ft / 45 m 9,858 ft / 3,005 m 52.68° 50.81° Concrete 984 ft / 300 m 659 ft / 201 m
23L 148 ft / 45 m 9,858 ft / 3,005 m 232.71° 230.84° Concrete 984 ft / 300 m 702 ft / 214 m
23R 148 ft / 45 m 8,895 ft / 2,711 m 232.75° 230.88° Concrete 971 ft / 296 m 928 ft / 283 m

EDDW

Details ICAO EDDW (BRE)
Name Bremen
Region Germany - Civil
Timezone Europe/Berlin (UTC+2.0)
Stats Elevation 14 ft / 4 m (AMSL)
Location 53.045715° 8.789003°
Runways 2
Magnetic Variation 2.465° E

METAR

EDDW 232120Z 06009KT CAVOK 18/07 Q1023

Decode

TAF

TAF EDDW 231700Z 2318/2418 06010KT CAVOK TEMPO 2410/2418 08015G25KT

Decode

Destination Runways

ID Width Length Bearing (true) Bearing (mag) Surface Threshold Offset Overrun Length
05 75 ft / 23 m 2,298 ft / 700 m 51.18° 48.71° Asphalt 0 ft / 0 m 0 ft / 0 m
09 151 ft / 46 m 8,616 ft / 2,626 m 87.78° 85.31° Asphalt 945 ft / 288 m 0 ft / 0 m
23 75 ft / 23 m 2,298 ft / 700 m 231.19° 228.72° Asphalt 0 ft / 0 m 0 ft / 0 m
27 151 ft / 46 m 8,616 ft / 2,626 m 267.82° 265.35° Asphalt 984 ft / 300 m 0 ft / 0 m

Approach Navaids

Runway Type Ident Frequency Range Bearing (true) Bearing (mag) Slope Elevation
09 Localiser IBRE 110.30 MHz 18 nm / 33 km 87.77° 85.30° - 13 ft / 4 m (AMSL)
09 Glidescope IBRE 110.30 MHz 10 nm / 19 km 87.80° 85.33° 3.00° 13 ft / 4 m (AMSL)
27 Localiser IBRW 110.90 MHz 18 nm / 33 km 267.87° 265.41° - 14 ft / 4 m (AMSL)
27 Glidescope IBRW 110.90 MHz 10 nm / 19 km 267.80° 265.33° 3.00° 14 ft / 4 m (AMSL)

Popular Alternatives